Terminal Aerodrome Forecast
Issued by NWS Paducah, KY

Home | Current Version | Previous Version | Graphics & Text | Print | Product List | Glossary On
Versions: 1 2 3 4 5 6 7 8 9 10 11 12 13 14 15 16 17 18 19 20 21 22 23 24 25 26 27
000
FTUS43 KPAH 170742 AAA
TAFPAH
TAF AMD
KPAH 170742Z 1708/1806 23011KT P6SM SCT007 BKN012
     FM171100 25010KT P6SM FEW030 SCT150
     FM180000 26010KT P6SM SCT025 BKN070
     FM180300 30006KT P6SM BKN035=

USA.gov is the U.S. government's official web portal to all federal, state and local government web resources and services.